Time;durP1;ratioP1;P1;durP2;ratioP2;P2;SDS_P1;SDS_P2;PMS_P1;PMS_P2;Temp;Humidity;BMP_temperature;BMP_pressure;BME280_temperature;BME280_humidity;BME280_pressure;Samples;Min_cycle;Max_cycle;Signal;HPM_P1;HPM_P2
2023/05/07 05:01:10;;;;;;;1.40;1.40;;;12.30;99.90;;;;;;6199784;22;21534;-72
2023/05/07 05:03:39;;;;;;;1.42;1.42;;;13.00;99.90;;;;;;6216241;23;20188;-72
2023/05/07 05:06:06;;;;;;;1.00;1.00;;;13.80;99.90;;;;;;6216293;23;20199;-71
2023/05/07 05:08:33;;;;;;;0.80;0.80;;;14.50;99.90;;;;;;6216332;23;20173;-71
2023/05/07 05:11:01;;;;;;;1.08;1.00;;;15.30;99.90;;;;;;6216172;23;20193;-71
2023/05/07 05:13:27;;;;;;;0.88;0.88;;;15.90;99.90;;;;;;6216360;23;20255;-71
2023/05/07 05:15:54;;;;;;;0.88;0.88;;;16.10;99.90;;;;;;6216244;23;20168;-71
2023/05/07 05:18:21;;;;;;;0.80;0.80;;;16.10;99.90;;;;;;6216183;23;20239;-72
2023/05/07 05:20:49;;;;;;;0.90;0.90;;;16.10;99.90;;;;;;6216049;23;20193;-71
2023/05/07 05:23:16;;;;;;;0.80;0.80;;;16.40;99.90;;;;;;6216333;23;20252;-72
2023/05/07 05:25:42;;;;;;;0.80;0.80;;;16.70;99.90;;;;;;6215976;23;20192;-72
2023/05/07 05:28:09;;;;;;;1.40;0.80;;;17.20;99.90;;;;;;6216129;23;20176;-72
2023/05/07 05:30:36;;;;;;;0.65;0.65;;;;;;;;;;6215989;23;20196;-72
2023/05/07 05:33:03;;;;;;;0.70;0.70;;;19.10;99.90;;;;;;6216028;23;20180;-72
2023/05/07 05:35:30;;;;;;;0.68;0.68;;;20.10;99.90;;;;;;6215649;23;20172;-72
2023/05/07 05:37:58;;;;;;;0.70;0.70;;;20.90;99.90;;;;;;6216094;23;20177;-72
2023/05/07 05:40:25;;;;;;;0.73;0.73;;;21.80;91.50;;;;;;6216082;23;20196;-72
2023/05/07 05:42:52;;;;;;;0.70;0.70;;;22.50;75.60;;;;;;6216295;23;20551;-72
2023/05/07 05:45:18;;;;;;;0.60;0.60;;;23.50;68.70;;;;;;6216138;23;20274;-72
2023/05/07 05:47:45;;;;;;;0.70;0.70;;;24.30;67.70;;;;;;6215990;23;20176;-72
2023/05/07 05:50:12;;;;;;;0.70;0.70;;;25.00;57.00;;;;;;6215895;23;20231;-71
2023/05/07 05:52:40;;;;;;;0.80;0.80;;;25.60;53.20;;;;;;6215964;23;20187;-71
2023/05/07 05:55:09;;;;;;;0.90;0.70;;;26.20;47.50;;;;;;6216341;23;20172;-71
2023/05/07 05:57:36;;;;;;;0.57;0.57;;;26.00;42.70;;;;;;6215519;23;20176;-70
2023/05/07 06:00:05;;;;;;;0.75;0.75;;;26.40;45.90;;;;;;6215761;23;20633;-72
2023/05/07 06:02:31;;;;;;;0.77;0.77;;;26.60;41.80;;;;;;6215477;23;20633;-71
2023/05/07 06:04:58;;;;;;;0.70;0.70;;;26.90;42.50;;;;;;6216013;23;20621;-74
2023/05/07 06:07:24;;;;;;;0.50;0.50;;;27.40;41.60;;;;;;6216978;23;20173;-74
2023/05/07 06:09:51;;;;;;;1.23;0.73;;;27.40;40.40;;;;;;6216029;23;20175;-69
2023/05/07 06:12:19;;;;;;;0.90;0.90;;;27.30;40.20;;;;;;6215902;23;20254;-69
2023/05/07 06:14:46;;;;;;;0.95;0.80;;;27.00;39.20;;;;;;6215676;23;20692;-69
2023/05/07 06:17:12;;;;;;;1.20;1.15;;;26.50;39.00;;;;;;6215970;23;20234;-69
2023/05/07 06:19:40;;;;;;;1.10;1.10;;;25.60;41.60;;;;;;6217787;23;20187;-69
2023/05/07 06:22:06;;;;;;;1.65;1.23;;;24.80;42.20;;;;;;6218021;23;20200;-69
2023/05/07 06:24:33;;;;;;;0.93;0.93;;;23.80;45.20;;;;;;6215516;23;20660;-69
2023/05/07 06:27:00;;;;;;;1.00;1.00;;;23.20;48.20;;;;;;6215897;23;20199;-69
2023/05/07 06:29:30;;;;;;;0.90;0.90;;;23.00;52.60;;;;;;6215879;23;20179;-69
2023/05/07 06:31:56;;;;;;;1.20;1.20;;;22.80;54.00;;;;;;6215372;23;20668;-69
2023/05/07 06:34:23;;;;;;;1.02;1.02;;;22.50;53.10;;;;;;6216155;23;20551;-69
2023/05/07 06:36:50;;;;;;;1.02;1.02;;;22.00;58.50;;;;;;6217437;23;20173;-69
2023/05/07 06:39:16;;;;;;;0.93;0.93;;;22.20;67.10;;;;;;6217924;23;20172;-69
2023/05/07 06:41:43;;;;;;;0.70;0.70;;;22.80;56.40;;;;;;6217761;23;20196;-69
2023/05/07 06:44:10;;;;;;;0.80;0.80;;;23.10;56.70;;;;;;6217541;23;20668;-68
2023/05/07 06:46:38;;;;;;;1.00;1.00;;;23.60;55.90;;;;;;6217783;23;20192;-71
2023/05/07 06:49:04;;;;;;;0.60;0.60;;;24.50;52.50;;;;;;6217811;23;20172;-71
2023/05/07 06:51:31;;;;;;;0.63;0.63;;;25.00;51.00;;;;;;6217420;23;20520;-71
2023/05/07 06:53:58;;;;;;;0.70;0.70;;;25.90;49.80;;;;;;6218002;23;20176;-70
2023/05/07 06:56:25;;;;;;;1.52;1.20;;;27.00;45.80;;;;;;6217870;23;20172;-71
2023/05/07 06:58:51;;;;;;;0.85;0.75;;;28.00;43.20;;;;;;6218816;23;20176;-75
2023/05/07 07:01:18;;;;;;;1.00;1.00;;;28.60;41.60;;;;;;6217710;23;20196;-73
2023/05/07 07:03:46;;;;;;;0.90;0.90;;;27.80;42.30;;;;;;6217410;23;20184;-72
2023/05/07 07:06:13;;;;;;;1.00;1.00;;;26.90;44.80;;;;;;6217038;23;20506;-72
2023/05/07 07:08:40;;;;;;;0.82;0.82;;;25.90;45.10;;;;;;6217664;23;20234;-72
2023/05/07 07:11:07;;;;;;;0.77;0.77;;;24.90;48.00;;;;;;6217349;23;20192;-71
2023/05/07 07:13:33;;;;;;;0.75;0.75;;;24.50;52.00;;;;;;6216986;23;20656;-71
2023/05/07 07:16:01;;;;;;;0.90;0.90;;;24.50;52.40;;;;;;6217093;23;20699;-72
2023/05/07 07:18:28;;;;;;;0.68;0.68;;;24.10;53.50;;;;;;6217371;23;20230;-70
2023/05/07 07:20:56;;;;;;;1.48;0.60;;;23.80;54.90;;;;;;6216939;23;20677;-71
2023/05/07 07:23:22;;;;;;;0.82;0.70;;;23.60;57.40;;;;;;6217436;23;20180;-71
2023/05/07 07:25:49;;;;;;;1.17;1.00;;;23.60;57.00;;;;;;6217371;23;20192;-71
2023/05/07 07:28:16;;;;;;;0.88;0.88;;;23.40;58.10;;;;;;6216811;23;20176;-73
2023/05/07 07:30:43;;;;;;;0.80;0.80;;;23.70;58.70;;;;;;6217122;23;20215;-71
2023/05/07 07:33:09;;;;;;;1.38;1.00;;;23.80;63.50;;;;;;6216755;23;20641;-72
2023/05/07 07:35:36;;;;;;;0.57;0.57;;;24.40;56.50;;;;;;6217308;23;20212;-71
2023/05/07 07:38:04;;;;;;;0.70;0.70;;;24.50;57.20;;;;;;6217140;23;20172;-71
2023/05/07 07:40:31;;;;;;;1.05;1.05;;;25.20;53.70;;;;;;6217173;23;20196;-71
2023/05/07 07:42:58;;;;;;;1.23;1.23;;;25.20;52.00;;;;;;6217181;23;20184;-70
2023/05/07 07:45:25;;;;;;;2.35;0.82;;;25.80;53.80;;;;;;6217410;23;20172;-70
2023/05/07 07:47:52;;;;;;;1.33;1.23;;;26.50;52.80;;;;;;6216672;23;20271;-69
2023/05/07 07:50:19;;;;;;;0.95;0.95;;;27.40;52.80;;;;;;6217710;23;20179;-70
2023/05/07 07:52:46;;;;;;;0.98;0.90;;;27.70;54.00;;;;;;6216969;23;20314;-70
2023/05/07 07:55:17;;;;;;;2.40;1.38;;;27.40;49.00;;;;;;6217013;23;20207;-70
2023/05/07 07:57:44;;;;;;;3.40;1.50;;;27.30;48.60;;;;;;6216721;23;20506;-71
2023/05/07 08:00:12;;;;;;;1.50;1.08;;;27.00;50.20;;;;;;6216496;23;20173;-71
2023/05/07 08:02:39;;;;;;;0.90;0.90;;;26.50;51.90;;;;;;6216431;23;20172;-71
2023/05/07 08:05:06;;;;;;;1.27;1.02;;;26.00;53.80;;;;;;6216938;23;20180;-71
2023/05/07 08:07:33;;;;;;;1.48;1.13;;;25.70;54.50;;;;;;6216892;23;20279;-71
2023/05/07 08:09:59;;;;;;;1.23;1.23;;;25.40;55.70;;;;;;6216483;23;20226;-72
2023/05/07 08:12:27;;;;;;;1.00;1.00;;;25.10;57.70;;;;;;6216675;23;20192;-70
2023/05/07 08:14:54;;;;;;;1.00;1.00;;;24.90;58.30;;;;;;6216587;23;20657;-71
2023/05/07 08:17:22;;;;;;;1.45;1.00;;;24.50;62.30;;;;;;6216879;23;20172;-70
2023/05/07 08:19:48;;;;;;;2.25;1.30;;;24.20;63.00;;;;;;6216924;23;20186;-70
2023/05/07 08:22:15;;;;;;;1.73;1.17;;;23.90;66.10;;;;;;6216415;23;20681;-70
2023/05/07 08:24:42;;;;;;;4.00;1.27;;;23.70;69.20;;;;;;6216886;23;20180;-70
2023/05/07 08:27:08;;;;;;;1.58;1.40;;;23.40;71.40;;;;;;6216622;23;20192;-70
2023/05/07 08:29:36;;;;;;;1.30;1.30;;;23.00;80.20;;;;;;6216233;23;20652;-70
2023/05/07 08:32:03;;;;;;;1.60;1.50;;;22.60;81.70;;;;;;6216669;23;20198;-70
2023/05/07 08:34:30;;;;;;;1.45;1.20;;;22.60;76.20;;;;;;6216699;23;20234;-70
2023/05/07 08:36:57;;;;;;;1.63;1.30;;;22.60;74.30;;;;;;6216723;23;20176;-71
2023/05/07 08:39:23;;;;;;;1.15;1.15;;;22.60;76.40;;;;;;6216514;23;20638;-71
2023/05/07 08:41:54;;;;;;;1.45;0.90;;;22.50;79.10;;;;;;6217517;23;20569;-69
2023/05/07 08:44:23;;;;;;;0.90;0.90;;;22.60;79.70;;;;;;6216909;23;20247;-70
2023/05/07 08:46:53;;;;;;;0.93;0.93;;;22.70;72.60;;;;;;6216886;23;20250;-70
2023/05/07 08:49:21;;;;;;;0.85;0.77;;;22.70;60.50;;;;;;6217450;23;20203;-71
2023/05/07 08:51:47;;;;;;;0.70;0.70;;;22.50;57.90;;;;;;6216946;23;20564;-69
2023/05/07 08:54:17;;;;;;;1.30;0.85;;;22.50;61.50;;;;;;6217033;23;20176;-69
2023/05/07 08:56:44;;;;;;;0.90;0.90;;;22.60;62.40;;;;;;6216498;23;20567;-70
2023/05/07 08:59:11;;;;;;;1.13;1.02;;;22.50;63.70;;;;;;6216389;23;20238;-69
2023/05/07 09:01:38;;;;;;;0.82;0.80;;;22.60;62.20;;;;;;6217143;23;20192;-70
2023/05/07 09:04:06;;;;;;;0.77;0.77;;;22.60;59.50;;;;;;6216550;23;20188;-69
2023/05/07 09:06:33;;;;;;;0.80;0.80;;;22.50;56.90;;;;;;6216848;23;20227;-69
2023/05/07 09:09:04;;;;;;;1.48;0.93;;;22.60;57.80;;;;;;6216903;23;20184;-69
2023/05/07 09:11:31;;;;;;;0.82;0.80;;;22.70;59.80;;;;;;6216822;23;20192;-69
2023/05/07 09:14:00;;;;;;;1.05;1.05;;;22.90;61.70;;;;;;6216761;23;20176;-70
2023/05/07 09:16:29;;;;;;;1.20;0.85;;;22.70;59.10;;;;;;6216870;23;20172;-69
2023/05/07 09:18:56;;;;;;;2.28;0.90;;;22.80;62.20;;;;;;6216809;23;20541;-69
2023/05/07 09:21:24;;;;;;;0.98;0.70;;;22.80;60.60;;;;;;6216473;23;20192;-69
2023/05/07 09:23:53;;;;;;;0.82;0.82;;;22.60;57.20;;;;;;6216662;23;20180;-69
2023/05/07 09:26:22;;;;;;;0.77;0.73;;;22.50;56.50;;;;;;6216573;23;20199;-69
2023/05/07 09:28:49;;;;;;;0.65;0.65;;;22.50;59.30;;;;;;6216614;23;20172;-69
2023/05/07 09:31:24;;;;;;;0.80;0.80;;;22.60;58.80;;;;;;5091285;27;20559;-71
2023/05/07 09:33:53;;;;;;;0.80;0.80;;;22.60;59.00;;;;;;5090906;28;20727;-69
2023/05/07 09:36:19;;;;;;;1.10;1.00;;;22.70;61.20;;;;;;5091266;28;20202;-70
2023/05/07 09:38:47;;;;;;;0.90;0.90;;;22.80;59.40;;;;;;5091211;28;20198;-69
2023/05/07 09:41:14;;;;;;;0.80;0.80;;;22.90;64.90;;;;;;5091002;28;20268;-70
2023/05/07 09:43:41;;;;;;;1.00;1.00;;;22.90;59.00;;;;;;5090875;28;20661;-70
2023/05/07 09:46:11;;;;;;;1.13;1.00;;;22.70;59.60;;;;;;5090910;28;20195;-71
2023/05/07 09:48:43;;;;;;;1.33;1.20;;;22.50;60.70;;;;;;5091292;28;20225;-70
2023/05/07 09:51:22;;;;;;;1.35;1.35;;;22.60;64.30;;;;;;5090747;28;20250;-70
2023/05/07 09:53:51;;;;;;;2.00;1.90;;;22.70;64.10;;;;;;5090955;28;20183;-70
2023/05/07 09:56:19;;;;;;;1.58;1.55;;;22.90;64.80;;;;;;5090577;28;20256;-70
2023/05/07 09:58:47;;;;;;;1.40;1.33;;;23.10;65.60;;;;;;5090696;28;20211;-70
2023/05/07 10:01:14;;;;;;;2.30;1.02;;;23.20;61.00;;;;;;5090472;28;20288;-70
2023/05/07 10:03:44;;;;;;;1.30;1.30;;;23.20;61.50;;;;;;5090781;28;20199;-70
2023/05/07 10:06:11;;;;;;;1.10;1.10;;;23.40;64.50;;;;;;5090671;28;20202;-70
2023/05/07 10:08:38;;;;;;;1.42;1.27;;;23.40;62.90;;;;;;5090390;28;20295;-70
2023/05/07 10:11:06;;;;;;;2.35;1.40;;;23.50;64.20;;;;;;5090132;28;20229;-69
2023/05/07 10:13:34;;;;;;;1.02;1.02;;;23.40;63.00;;;;;;5090214;28;20285;-69
2023/05/07 10:16:02;;;;;;;1.33;1.23;;;23.40;64.00;;;;;;5090192;28;20293;-69
2023/05/07 10:18:32;;;;;;;1.75;1.05;;;23.60;63.80;;;;;;5090320;28;20195;-69
2023/05/07 10:21:05;;;;;;;0.95;0.90;;;23.50;61.00;;;;;;5089853;28;20702;-68
2023/05/07 10:23:33;;;;;;;1.58;1.50;;;23.50;62.30;;;;;;5089986;28;20613;-67
2023/05/07 10:26:02;;;;;;;1.13;1.13;;;23.50;59.50;;;;;;5089830;28;20234;-69
2023/05/07 10:28:31;;;;;;;1.17;1.08;;;23.20;63.60;;;;;;5089776;28;20596;-69
2023/05/07 10:31:08;;;;;;;1.23;1.15;;;23.30;67.50;;;;;;5089381;28;20620;-69
2023/05/07 10:33:37;;;;;;;1.42;1.30;;;23.50;66.90;;;;;;5090000;28;20183;-70
2023/05/07 10:36:07;;;;;;;1.20;1.10;;;23.50;67.60;;;;;;5089975;28;20191;-69
2023/05/07 10:38:34;;;;;;;1.40;1.30;;;23.60;65.80;;;;;;5090015;28;20190;-69
2023/05/07 10:41:04;;;;;;;1.88;1.75;;;23.80;65.10;;;;;;5085645;28;20628;-69
2023/05/07 10:43:41;;;;;;;25.27;7.03;;;24.10;62.90;;;;;;5075882;28;20681;-70
2023/05/07 10:46:12;;;;;;;18.13;7.35;;;24.30;60.30;;;;;;5076307;28;20574;-70
2023/05/07 10:49:14;;;;;;;14.02;6.38;;;24.40;58.90;;;;;;5077027;28;20582;-70
2023/05/07 10:51:45;;;;;;;5.82;3.65;;;24.30;56.70;;;;;;5076728;28;20288;-70
2023/05/07 10:54:23;;;;;;;8.18;3.65;;;24.10;58.10;;;;;;5076671;28;20191;-70
2023/05/07 10:56:50;;;;;;;19.23;7.28;;;24.00;59.60;;;;;;5075627;28;20603;-70
2023/05/07 10:59:43;;;;;;;14.85;7.22;;;24.00;59.90;;;;;;5076163;28;20317;-70
2023/05/07 11:02:11;;;;;;;10.30;6.25;;;24.10;58.10;;;;;;5075766;28;20215;-70
2023/05/07 11:04:38;;;;;;;8.40;4.57;;;24.30;57.50;;;;;;5075809;28;20249;-70
2023/05/07 11:07:31;;;;;;;6.05;3.20;;;24.30;58.90;;;;;;5075586;28;20640;-70
2023/05/07 11:10:04;;;;;;;3.50;2.65;;;24.30;58.40;;;;;;5075775;28;20206;-70
2023/05/07 11:12:53;;;;;;;4.85;2.60;;;24.40;58.70;;;;;;5075493;28;20632;-70
2023/05/07 11:15:45;;;;;;;3.63;2.72;;;24.50;63.60;;;;;;5075838;28;20249;-70
2023/05/07 11:18:13;;;;;;;2.17;2.08;;;24.60;61.00;;;;;;5075783;28;20195;-70
2023/05/07 11:20:47;;;;;;;1.73;1.63;;;24.40;59.90;;;;;;5075699;28;20223;-68
2023/05/07 11:23:47;;;;;;;2.30;1.63;;;24.20;61.10;;;;;;5075366;28;20203;-69
2023/05/07 11:26:16;;;;;;;1.85;1.75;;;24.00;66.10;;;;;;5075724;28;20210;-69
2023/05/07 11:28:44;;;;;;;2.28;2.08;;;23.80;67.70;;;;;;5075171;28;20700;-68
2023/05/07 11:31:12;;;;;;;2.67;2.08;;;23.60;68.20;;;;;;5075162;28;20231;-68
2023/05/07 11:33:39;;;;;;;2.17;1.98;;;23.10;72.50;;;;;;5075526;28;20633;-69
2023/05/07 11:36:08;;;;;;;1.88;1.77;;;22.90;76.60;;;;;;5075392;28;20210;-68
2023/05/07 11:38:37;;;;;;;1.95;1.85;;;23.00;82.70;;;;;;5075517;28;20200;-68
2023/05/07 11:41:05;;;;;;;1.73;1.63;;;23.20;80.50;;;;;;5075336;28;20212;-68
2023/05/07 11:43:35;;;;;;;1.92;1.83;;;23.40;77.50;;;;;;5075444;28;20196;-68
2023/05/07 11:46:10;;;;;;;1.90;1.80;;;23.40;80.40;;;;;;5075299;28;20282;-68
2023/05/07 11:48:37;;;;;;;1.48;1.40;;;23.40;76.90;;;;;;5075189;28;20202;-68
2023/05/07 11:51:05;;;;;;;1.70;1.30;;;23.40;71.90;;;;;;5075139;28;20280;-68
2023/05/07 11:53:37;;;;;;;2.05;1.95;;;23.20;73.90;;;;;;5074471;28;20195;-68
2023/05/07 11:56:08;;;;;;;3.72;1.83;;;23.20;80.00;;;;;;5075478;28;20184;-67
2023/05/07 11:58:36;;;;;;;1.30;1.30;;;23.10;78.00;;;;;;5075372;28;20230;-68
2023/05/07 12:01:03;;;;;;;1.30;1.20;;;22.90;77.50;;;;;;5074429;28;20216;-68
2023/05/07 12:03:30;;;;;;;1.10;1.05;;;22.80;80.70;;;;;;5074801;28;20208;-68
2023/05/07 12:05:57;;;;;;;1.10;1.10;;;22.70;80.90;;;;;;5074684;28;20199;-68
2023/05/07 12:08:24;;;;;;;1.17;1.15;;;22.70;79.50;;;;;;5075144;28;20253;-69
2023/05/07 12:10:51;;;;;;;1.73;1.63;;;22.50;82.70;;;;;;5074656;28;20257;-70
2023/05/07 12:13:19;;;;;;;1.27;1.13;;;22.30;86.40;;;;;;5074717;28;20204;-69
2023/05/07 12:15:47;;;;;;;1.13;1.13;;;22.00;89.20;;;;;;5074993;28;20221;-70
2023/05/07 12:18:14;;;;;;;1.20;1.20;;;21.70;95.20;;;;;;5074945;28;20203;-69
2023/05/07 12:20:42;;;;;;;1.55;1.23;;;21.50;97.60;;;;;;5074504;28;20223;-68
2023/05/07 12:23:08;;;;;;;1.27;1.20;;;21.30;99.90;;;;;;5074229;28;20642;-67
2023/05/07 12:25:36;;;;;;;1.88;1.30;;;21.00;95.90;;;;;;5074123;28;20689;-67
2023/05/07 12:28:04;;;;;;;1.23;1.10;;;20.60;99.90;;;;;;5074353;28;20617;-67
2023/05/07 12:30:31;;;;;;;1.95;1.30;;;20.30;99.90;;;;;;5073759;28;20247;-68
2023/05/07 12:32:59;;;;;;;1.85;1.60;;;19.90;99.90;;;;;;5074251;28;20211;-68
2023/05/07 12:35:29;;;;;;;1.55;1.50;;;19.60;99.90;;;;;;5074233;28;20234;-68
2023/05/07 12:37:56;;;;;;;1.85;1.23;;;19.10;99.90;;;;;;5074189;28;20195;-67
2023/05/07 12:40:23;;;;;;;5.22;1.83;;;18.70;99.90;;;;;;5074140;28;20286;-67
2023/05/07 12:42:55;;;;;;;2.08;1.88;;;18.20;99.90;;;;;;5074255;28;20252;-68
2023/05/07 12:45:22;;;;;;;5.47;2.20;;;17.70;99.90;;;;;;5074172;28;20279;-68
2023/05/07 12:47:49;;;;;;;2.67;1.98;;;;;;;;;;5073956;28;20230;-67
2023/05/07 12:50:18;;;;;;;2.65;1.40;;;;;;;;;;5073865;28;20249;-67
2023/05/07 12:52:46;;;;;;;1.95;1.80;;;;;;;;;;5074144;28;20196;-69
2023/05/07 12:55:15;;;;;;;1.60;1.50;;;16.30;99.90;;;;;;5074893;28;20253;-70
2023/05/07 12:57:46;;;;;;;4.57;2.33;;;16.50;99.90;;;;;;5074438;28;20273;-70
2023/05/07 13:00:14;;;;;;;3.10;2.05;;;16.60;99.90;;;;;;5074086;28;20586;-69
2023/05/07 13:02:44;;;;;;;3.17;2.00;;;16.60;99.90;;;;;;5074281;28;20183;-70
2023/05/07 13:05:11;;;;;;;4.32;1.63;;;16.70;99.90;;;;;;5073323;28;20757;-69
2023/05/07 13:07:40;;;;;;;4.13;2.35;;;16.80;99.90;;;;;;5074015;28;20206;-70
2023/05/07 13:10:08;;;;;;;3.38;1.95;;;17.00;99.90;;;;;;5073772;28;20203;-70
2023/05/07 13:12:35;;;;;;;2.63;1.80;;;17.20;99.90;;;;;;5074699;28;20200;-70
2023/05/07 13:15:02;;;;;;;1.38;1.27;;;17.40;99.90;;;;;;5074965;28;20202;-70
2023/05/07 13:17:30;;;;;;;2.60;1.77;;;17.80;99.90;;;;;;5075645;28;20203;-70
2023/05/07 13:19:57;;;;;;;2.58;1.73;;;17.90;99.90;;;;;;5073729;28;20203;-71
2023/05/07 13:22:23;;;;;;;3.05;1.77;;;17.90;99.90;;;;;;5073645;28;20229;-67
2023/05/07 13:24:54;;;;;;;2.25;1.40;;;18.20;99.90;;;;;;5073646;28;20248;-68
2023/05/07 13:27:24;;;;;;;1.20;1.15;;;18.40;99.90;;;;;;5073296;28;20696;-67
2023/05/07 13:29:50;;;;;;;4.18;1.40;;;18.40;99.90;;;;;;5073391;28;20218;-68
2023/05/07 13:32:17;;;;;;;3.50;1.10;;;18.80;99.90;;;;;;5073315;28;20227;-67
2023/05/07 13:34:44;;;;;;;1.38;1.27;;;18.90;99.90;;;;;;5073397;28;20244;-68
2023/05/07 13:37:11;;;;;;;1.83;1.20;;;19.10;99.90;;;;;;5073117;28;20206;-68
2023/05/07 13:39:38;;;;;;;4.10;1.90;;;19.20;99.90;;;;;;5073494;28;20200;-70
2023/05/07 13:42:07;;;;;;;3.50;1.38;;;;;;;;;;5073280;28;20685;-69
2023/05/07 13:44:34;;;;;;;1.52;1.20;;;19.20;99.90;;;;;;5073345;28;20199;-69
2023/05/07 13:47:01;;;;;;;1.40;1.40;;;19.50;99.90;;;;;;5073314;28;20277;-67
2023/05/07 13:49:31;;;;;;;1.20;1.10;;;19.60;99.90;;;;;;5072944;28;20547;-68
2023/05/07 13:51:57;;;;;;;8.80;1.50;;;19.60;99.90;;;;;;5073314;28;20296;-68
2023/05/07 13:54:24;;;;;;;4.75;1.33;;;;;;;;;;5073053;28;20571;-68
2023/05/07 13:56:54;;;;;;;3.85;1.23;;;19.70;99.90;;;;;;5075454;28;20290;-69
2023/05/07 13:59:22;;;;;;;1.13;1.10;;;19.70;99.90;;;;;;5073309;28;20188;-69
2023/05/07 14:01:49;;;;;;;1.17;1.17;;;19.70;99.90;;;;;;5072677;28;20706;-70
2023/05/07 14:04:16;;;;;;;1.00;1.00;;;19.80;99.90;;;;;;5073131;28;20231;-71
2023/05/07 14:06:43;;;;;;;0.98;0.98;;;19.70;99.90;;;;;;5073140;28;20207;-71
2023/05/07 14:09:13;;;;;;;1.17;1.17;;;;;;;;;;5073017;28;20202;-71
2023/05/07 14:11:40;;;;;;;1.20;1.13;;;;;;;;;;5072925;28;20227;-72
2023/05/07 14:14:10;;;;;;;1.10;1.10;;;;;;;;;;5072843;28;20607;-71
2023/05/07 14:16:38;;;;;;;1.00;1.00;;;19.50;99.90;;;;;;5074229;28;20187;-72
2023/05/07 14:19:05;;;;;;;0.93;0.93;;;;;;;;;;5076693;28;20250;-72
2023/05/07 14:21:32;;;;;;;1.33;0.90;;;19.50;99.90;;;;;;5076711;28;20220;-72
2023/05/07 14:23:59;;;;;;;1.00;1.00;;;19.50;99.90;;;;;;5076774;28;20207;-72
2023/05/07 14:26:27;;;;;;;1.13;1.13;;;;;;;;;;5076769;28;20200;-72
2023/05/07 14:28:58;;;;;;;1.50;1.35;;;;;;;;;;5076698;28;20199;-71
2023/05/07 14:31:25;;;;;;;1.38;1.10;;;19.30;99.90;;;;;;5079095;28;20220;-71
2023/05/07 14:33:54;;;;;;;1.27;1.20;;;19.20;99.90;;;;;;5080828;28;20239;-71
2023/05/07 14:36:22;;;;;;;1.35;1.15;;;;;;;;;;5080761;28;20203;-71
2023/05/07 14:38:49;;;;;;;1.48;1.30;;;19.10;99.90;;;;;;5078577;28;20612;-72
2023/05/07 14:41:17;;;;;;;1.20;1.10;;;19.20;99.90;;;;;;5079536;28;20211;-72
2023/05/07 14:43:49;;;;;;;1.00;1.00;;;19.10;99.90;;;;;;5080563;28;20204;-71
2023/05/07 14:46:17;;;;;;;1.02;1.00;;;19.20;99.90;;;;;;5080200;28;20180;-72
2023/05/07 14:48:46;;;;;;;1.23;1.10;;;;;;;;;;5080799;28;20194;-72
2023/05/07 14:51:15;;;;;;;2.42;1.35;;;;;;;;;;5080748;28;20227;-71
2023/05/07 14:53:42;;;;;;;1.50;1.40;;;19.10;99.90;;;;;;5081039;28;20199;-71
2023/05/07 14:56:09;;;;;;;1.20;1.20;;;18.70;99.90;;;;;;5080722;28;20207;-72
2023/05/07 14:58:37;;;;;;;1.40;1.30;;;18.70;99.90;;;;;;5081556;28;20270;-74
2023/05/07 15:01:05;;;;;;;1.60;1.50;;;18.50;99.90;;;;;;5082501;28;20239;-74
2023/05/07 15:03:32;;;;;;;3.67;1.63;;;18.40;99.90;;;;;;5081099;28;20286;-74
2023/05/07 15:05:59;;;;;;;3.28;1.70;;;18.20;99.90;;;;;;5081346;28;20261;-76
2023/05/07 15:08:27;;;;;;;1.70;1.58;;;18.10;99.90;;;;;;5081958;28;20199;-76
2023/05/07 15:10:55;;;;;;;1.30;1.20;;;18.00;99.90;;;;;;5080919;28;20224;-76
2023/05/07 15:13:22;;;;;;;1.77;1.23;;;17.90;99.90;;;;;;5081638;28;20635;-76
2023/05/07 15:15:50;;;;;;;2.70;1.58;;;17.70;99.90;;;;;;5082214;28;20196;-76
2023/05/07 15:18:17;;;;;;;3.17;1.33;;;17.50;99.90;;;;;;5081756;28;20204;-77
2023/05/07 15:20:45;;;;;;;12.40;1.45;;;17.60;99.90;;;;;;5082869;28;20223;-76
2023/05/07 15:23:13;;;;;;;1.08;1.05;;;17.80;99.90;;;;;;5080867;28;20642;-76
2023/05/07 15:25:42;;;;;;;5.15;0.95;;;17.70;99.90;;;;;;5080827;28;20221;-75
2023/05/07 15:28:09;;;;;;;1.77;1.10;;;17.70;99.90;;;;;;5080581;28;20211;-76
2023/05/07 15:30:36;;;;;;;1.13;1.13;;;17.70;99.90;;;;;;5075960;28;20227;-77
2023/05/07 15:33:03;;;;;;;1.10;1.10;;;17.80;99.90;;;;;;5075942;28;20219;-76
2023/05/07 15:35:30;;;;;;;1.10;1.10;;;17.90;99.90;;;;;;5075434;28;20543;-77
2023/05/07 15:37:57;;;;;;;1.65;1.00;;;17.90;99.90;;;;;;5077377;28;20655;-76
2023/05/07 15:40:24;;;;;;;1.63;0.98;;;18.00;99.90;;;;;;5076184;28;20200;-77
2023/05/07 15:42:56;;;;;;;1.50;1.40;;;18.00;99.90;;;;;;5077870;28;20202;-77
2023/05/07 15:45:23;;;;;;;1.42;1.20;;;18.10;99.90;;;;;;5077663;28;20619;-77
2023/05/07 15:47:50;;;;;;;1.20;1.10;;;18.10;99.90;;;;;;5077782;28;20226;-77
2023/05/07 15:50:17;;;;;;;1.20;1.20;;;18.00;99.90;;;;;;5076059;28;20207;-77
2023/05/07 15:52:45;;;;;;;1.27;1.27;;;18.00;99.90;;;;;;5077609;28;20220;-78
2023/05/07 15:55:12;;;;;;;0.90;0.90;;;18.00;99.90;;;;;;5077419;28;20286;-77
2023/05/07 15:57:40;;;;;;;1.45;1.35;;;;;;;;;;5077402;28;20208;-78
2023/05/07 16:00:11;;;;;;;1.13;1.13;;;17.80;99.90;;;;;;5077683;28;20250;-78
2023/05/07 16:02:38;;;;;;;1.08;1.00;;;;;;;;;;5078821;28;20188;-78
2023/05/07 16:05:07;;;;;;;1.05;1.05;;;17.80;99.90;;;;;;5078591;28;20210;-77
2023/05/07 16:07:36;;;;;;;1.75;1.00;;;17.80;99.90;;;;;;5076374;28;20210;-78
2023/05/07 16:10:02;;;;;;;1.30;1.23;;;17.90;99.90;;;;;;5077522;28;20196;-77
2023/05/07 16:12:30;;;;;;;1.00;1.00;;;;;;;;;;5074267;28;20717;-76
2023/05/07 16:14:57;;;;;;;1.17;1.17;;;;;;;;;;5074513;28;20250;-76
2023/05/07 16:17:25;;;;;;;1.23;1.10;;;;;;;;;;5078854;28;20654;-79
2023/05/07 16:19:52;;;;;;;1.15;1.02;;;17.60;99.90;;;;;;5081702;28;20199;-79
2023/05/07 16:22:19;;;;;;;1.10;1.10;;;17.50;99.90;;;;;;5079770;28;20706;-78
2023/05/07 16:24:46;;;;;;;1.17;1.10;;;17.40;99.90;;;;;;5077064;28;20234;-78
2023/05/07 16:27:12;;;;;;;1.15;1.15;;;17.40;99.90;;;;;;5076683;28;20229;-78
2023/05/07 16:29:40;;;;;;;1.40;1.30;;;17.40;99.90;;;;;;5076263;28;20219;-78
2023/05/07 16:32:07;;;;;;;1.42;1.33;;;17.20;99.90;;;;;;5075741;28;20242;-78
2023/05/07 16:34:35;;;;;;;1.00;0.90;;;17.10;99.90;;;;;;5076197;28;20253;-78
2023/05/07 16:37:03;;;;;;;1.38;1.10;;;17.00;99.90;;;;;;5075535;28;20208;-78
2023/05/07 16:39:31;;;;;;;0.85;0.85;;;;;;;;;;5075432;28;20551;-78
2023/05/07 16:41:59;;;;;;;1.10;1.00;;;;;;;;;;5075869;28;20215;-78
2023/05/07 16:44:25;;;;;;;1.90;0.75;;;16.70;99.90;;;;;;5076077;28;20203;-78
2023/05/07 16:46:52;;;;;;;1.23;1.13;;;16.70;99.90;;;;;;5075046;28;20196;-77
2023/05/07 16:49:19;;;;;;;1.13;1.10;;;16.60;99.90;;;;;;5074021;28;20204;-77
2023/05/07 16:51:47;;;;;;;0.90;0.90;;;16.50;99.90;;;;;;5074508;28;20224;-77
2023/05/07 16:54:14;;;;;;;2.80;1.08;;;16.50;99.90;;;;;;5073874;28;20200;-77
2023/05/07 16:56:42;;;;;;;0.90;0.90;;;16.40;99.90;;;;;;5073800;28;20196;-77
2023/05/07 16:59:09;;;;;;;1.20;1.10;;;16.40;99.90;;;;;;5073848;28;20245;-76
2023/05/07 17:01:36;;;;;;;0.90;0.90;;;16.00;99.90;;;;;;5073669;28;20259;-77
2023/05/07 17:04:03;;;;;;;1.00;1.00;;;17.00;99.90;;;;;;5073565;28;20598;-78
2023/05/07 17:06:30;;;;;;;0.90;0.90;;;16.10;99.90;;;;;;5073835;28;20207;-77
2023/05/07 17:08:58;;;;;;;1.17;1.17;;;16.20;99.90;;;;;;5073655;28;20227;-77
2023/05/07 17:11:29;;;;;;;1.10;1.00;;;16.00;99.90;;;;;;5073948;28;20226;-76
2023/05/07 17:13:56;;;;;;;3.40;0.90;;;;;;;;;;5073887;28;20180;-74
2023/05/07 17:16:23;;;;;;;0.80;0.80;;;15.90;99.90;;;;;;5073711;28;20207;-73
2023/05/07 17:18:50;;;;;;;0.70;0.70;;;16.00;99.90;;;;;;5073304;28;20559;-73
2023/05/07 17:21:17;;;;;;;0.90;0.90;;;15.90;99.90;;;;;;5073544;28;20220;-73
2023/05/07 17:23:43;;;;;;;0.80;0.80;;;16.00;99.90;;;;;;5073571;28;20227;-73
2023/05/07 17:26:15;;;;;;;1.00;1.00;;;16.00;99.90;;;;;;5073487;28;20229;-74
2023/05/07 17:28:41;;;;;;;0.80;0.80;;;16.00;99.90;;;;;;5073915;28;20207;-76
2023/05/07 17:31:08;;;;;;;0.70;0.70;;;16.00;99.90;;;;;;5073506;28;20231;-77
2023/05/07 17:33:35;;;;;;;0.98;0.98;;;;;;;;;;5073700;28;20563;-77
2023/05/07 17:36:02;;;;;;;1.05;1.05;;;15.90;99.90;;;;;;5074337;28;20203;-76
2023/05/07 17:38:29;;;;;;;0.90;0.90;;;16.00;99.90;;;;;;5073776;28;20207;-77
2023/05/07 17:40:57;;;;;;;1.17;1.17;;;15.90;99.90;;;;;;5073520;28;20223;-77
2023/05/07 17:43:25;;;;;;;0.93;0.93;;;15.80;99.90;;;;;;5073677;28;20204;-76
2023/05/07 17:45:52;;;;;;;1.00;1.00;;;15.80;99.90;;;;;;5073840;28;20208;-78
2023/05/07 17:48:19;;;;;;;0.90;0.90;;;15.70;99.90;;;;;;5074600;28;20667;-78
2023/05/07 17:50:46;;;;;;;0.77;0.77;;;15.70;99.90;;;;;;5074074;28;20220;-75
2023/05/07 17:53:12;;;;;;;0.80;0.80;;;15.60;99.90;;;;;;5077369;28;20220;-74
2023/05/07 17:55:42;;;;;;;0.80;0.80;;;15.50;99.90;;;;;;5078178;28;20196;-75
2023/05/07 17:58:09;;;;;;;1.05;1.05;;;15.50;99.90;;;;;;5079816;28;20215;-75
2023/05/07 18:00:37;;;;;;;0.80;0.80;;;15.50;99.90;;;;;;5084967;28;20227;-74